sensor_id;sensor_type;location;lat;lon;timestamp;P1;durP1;ratioP1;P2;durP2;ratioP2
78312;SDS011;67568;47.438;21.408;2023-12-20T00:01:55;3.20;;;2.58;;
78312;SDS011;67568;47.438;21.408;2023-12-20T00:04:22;3.60;;;2.53;;
78312;SDS011;67568;47.438;21.408;2023-12-20T00:06:49;5.78;;;3.00;;
78312;SDS011;67568;47.438;21.408;2023-12-20T00:09:16;3.13;;;2.03;;
78312;SDS011;67568;47.438;21.408;2023-12-20T00:11:43;4.88;;;2.47;;
78312;SDS011;67568;47.438;21.408;2023-12-20T00:14:09;4.90;;;3.85;;
78312;SDS011;67568;47.438;21.408;2023-12-20T00:16:36;4.83;;;2.90;;
78312;SDS011;67568;47.438;21.408;2023-12-20T00:19:03;3.63;;;2.72;;
78312;SDS011;67568;47.438;21.408;2023-12-20T00:21:30;4.75;;;4.13;;
78312;SDS011;67568;47.438;21.408;2023-12-20T00:23:56;4.93;;;2.47;;
78312;SDS011;67568;47.438;21.408;2023-12-20T00:26:23;7.97;;;3.08;;
78312;SDS011;67568;47.438;21.408;2023-12-20T00:28:50;5.23;;;3.03;;
78312;SDS011;67568;47.438;21.408;2023-12-20T00:31:16;4.68;;;3.05;;
78312;SDS011;67568;47.438;21.408;2023-12-20T00:33:43;5.22;;;4.35;;
78312;SDS011;67568;47.438;21.408;2023-12-20T00:36:10;5.68;;;2.88;;
78312;SDS011;67568;47.438;21.408;2023-12-20T00:38:37;2.80;;;2.28;;
78312;SDS011;67568;47.438;21.408;2023-12-20T00:41:04;4.17;;;2.77;;
78312;SDS011;67568;47.438;21.408;2023-12-20T00:43:31;7.03;;;2.40;;
78312;SDS011;67568;47.438;21.408;2023-12-20T00:45:58;3.60;;;2.88;;
78312;SDS011;67568;47.438;21.408;2023-12-20T00:48:24;5.28;;;2.45;;
78312;SDS011;67568;47.438;21.408;2023-12-20T00:50:51;10.57;;;2.88;;
78312;SDS011;67568;47.438;21.408;2023-12-20T00:53:18;3.27;;;2.23;;
78312;SDS011;67568;47.438;21.408;2023-12-20T00:55:45;11.50;;;2.95;;
78312;SDS011;67568;47.438;21.408;2023-12-20T00:58:11;5.03;;;2.03;;
78312;SDS011;67568;47.438;21.408;2023-12-20T01:00:38;4.57;;;2.55;;
78312;SDS011;67568;47.438;21.408;2023-12-20T01:03:08;4.07;;;2.42;;
78312;SDS011;67568;47.438;21.408;2023-12-20T01:05:35;6.20;;;4.10;;
78312;SDS011;67568;47.438;21.408;2023-12-20T01:08:02;6.38;;;4.00;;
78312;SDS011;67568;47.438;21.408;2023-12-20T01:10:29;4.65;;;2.88;;
78312;SDS011;67568;47.438;21.408;2023-12-20T01:12:56;3.13;;;1.83;;
78312;SDS011;67568;47.438;21.408;2023-12-20T01:15:23;3.83;;;2.95;;
78312;SDS011;67568;47.438;21.408;2023-12-20T01:17:50;3.17;;;2.20;;
78312;SDS011;67568;47.438;21.408;2023-12-20T01:20:18;5.18;;;3.35;;
78312;SDS011;67568;47.438;21.408;2023-12-20T01:22:44;6.68;;;3.35;;
78312;SDS011;67568;47.438;21.408;2023-12-20T01:25:11;4.50;;;2.45;;
78312;SDS011;67568;47.438;21.408;2023-12-20T01:27:38;2.60;;;1.98;;
78312;SDS011;67568;47.438;21.408;2023-12-20T01:30:05;2.17;;;1.73;;
78312;SDS011;67568;47.438;21.408;2023-12-20T01:32:32;3.50;;;2.63;;
78312;SDS011;67568;47.438;21.408;2023-12-20T01:34:59;2.75;;;1.98;;
78312;SDS011;67568;47.438;21.408;2023-12-20T01:37:28;2.85;;;2.05;;
78312;SDS011;67568;47.438;21.408;2023-12-20T01:39:55;5.38;;;3.05;;
78312;SDS011;67568;47.438;21.408;2023-12-20T01:42:25;7.27;;;2.57;;
78312;SDS011;67568;47.438;21.408;2023-12-20T01:44:52;2.95;;;1.75;;
78312;SDS011;67568;47.438;21.408;2023-12-20T01:47:19;4.63;;;3.40;;
78312;SDS011;67568;47.438;21.408;2023-12-20T01:49:46;3.75;;;2.80;;
78312;SDS011;67568;47.438;21.408;2023-12-20T01:52:13;8.48;;;3.72;;
78312;SDS011;67568;47.438;21.408;2023-12-20T01:54:40;3.47;;;1.87;;
78312;SDS011;67568;47.438;21.408;2023-12-20T01:57:08;3.13;;;1.35;;
78312;SDS011;67568;47.438;21.408;2023-12-20T01:59:36;4.00;;;1.95;;
78312;SDS011;67568;47.438;21.408;2023-12-20T02:02:05;5.68;;;2.88;;
78312;SDS011;67568;47.438;21.408;2023-12-20T02:04:34;2.53;;;1.52;;
78312;SDS011;67568;47.438;21.408;2023-12-20T02:07:01;6.47;;;2.07;;
78312;SDS011;67568;47.438;21.408;2023-12-20T02:09:29;3.25;;;2.53;;
78312;SDS011;67568;47.438;21.408;2023-12-20T02:11:56;5.30;;;2.78;;
78312;SDS011;67568;47.438;21.408;2023-12-20T02:14:23;2.45;;;1.40;;
78312;SDS011;67568;47.438;21.408;2023-12-20T02:16:50;2.15;;;1.38;;
78312;SDS011;67568;47.438;21.408;2023-12-20T02:19:16;3.50;;;1.77;;
78312;SDS011;67568;47.438;21.408;2023-12-20T02:21:44;3.97;;;2.95;;
78312;SDS011;67568;47.438;21.408;2023-12-20T02:24:11;3.10;;;2.15;;
78312;SDS011;67568;47.438;21.408;2023-12-20T02:26:37;4.13;;;2.05;;
78312;SDS011;67568;47.438;21.408;2023-12-20T02:29:04;2.60;;;1.40;;
78312;SDS011;67568;47.438;21.408;2023-12-20T02:31:31;7.03;;;3.73;;
78312;SDS011;67568;47.438;21.408;2023-12-20T02:33:58;3.15;;;1.83;;
78312;SDS011;67568;47.438;21.408;2023-12-20T02:36:25;9.00;;;2.20;;
78312;SDS011;67568;47.438;21.408;2023-12-20T02:38:54;4.22;;;2.80;;
78312;SDS011;67568;47.438;21.408;2023-12-20T02:41:20;4.28;;;2.35;;
78312;SDS011;67568;47.438;21.408;2023-12-20T02:43:47;6.47;;;4.33;;
78312;SDS011;67568;47.438;21.408;2023-12-20T02:46:14;3.78;;;2.25;;
78312;SDS011;67568;47.438;21.408;2023-12-20T02:48:42;3.65;;;2.17;;
78312;SDS011;67568;47.438;21.408;2023-12-20T02:51:09;3.80;;;3.05;;
78312;SDS011;67568;47.438;21.408;2023-12-20T02:53:36;6.65;;;3.80;;
78312;SDS011;67568;47.438;21.408;2023-12-20T02:56:03;5.50;;;2.77;;
78312;SDS011;67568;47.438;21.408;2023-12-20T02:58:30;2.28;;;1.50;;
78312;SDS011;67568;47.438;21.408;2023-12-20T03:00:57;2.88;;;1.80;;
78312;SDS011;67568;47.438;21.408;2023-12-20T03:03:24;4.05;;;3.03;;
78312;SDS011;67568;47.438;21.408;2023-12-20T03:05:50;4.63;;;2.75;;
78312;SDS011;67568;47.438;21.408;2023-12-20T03:08:18;4.10;;;2.27;;
78312;SDS011;67568;47.438;21.408;2023-12-20T03:10:45;4.57;;;2.47;;
78312;SDS011;67568;47.438;21.408;2023-12-20T03:13:11;5.10;;;2.20;;
78312;SDS011;67568;47.438;21.408;2023-12-20T03:15:38;5.30;;;3.55;;
78312;SDS011;67568;47.438;21.408;2023-12-20T03:18:05;4.10;;;2.58;;
78312;SDS011;67568;47.438;21.408;2023-12-20T03:20:32;4.43;;;3.40;;
78312;SDS011;67568;47.438;21.408;2023-12-20T03:22:58;3.83;;;2.25;;
78312;SDS011;67568;47.438;21.408;2023-12-20T03:25:25;5.00;;;2.60;;
78312;SDS011;67568;47.438;21.408;2023-12-20T03:27:52;3.70;;;1.90;;
78312;SDS011;67568;47.438;21.408;2023-12-20T03:30:19;5.00;;;2.40;;
78312;SDS011;67568;47.438;21.408;2023-12-20T03:32:46;2.70;;;1.90;;
78312;SDS011;67568;47.438;21.408;2023-12-20T03:35:13;4.20;;;2.25;;
78312;SDS011;67568;47.438;21.408;2023-12-20T03:37:40;4.82;;;2.28;;
78312;SDS011;67568;47.438;21.408;2023-12-20T03:40:07;6.43;;;2.95;;
78312;SDS011;67568;47.438;21.408;2023-12-20T03:42:41;3.10;;;2.42;;
78312;SDS011;67568;47.438;21.408;2023-12-20T03:45:08;3.17;;;2.50;;
78312;SDS011;67568;47.438;21.408;2023-12-20T03:47:38;5.47;;;3.35;;
78312;SDS011;67568;47.438;21.408;2023-12-20T03:50:05;2.40;;;1.60;;
78312;SDS011;67568;47.438;21.408;2023-12-20T03:52:32;2.67;;;2.03;;
78312;SDS011;67568;47.438;21.408;2023-12-20T03:54:59;3.50;;;2.40;;
78312;SDS011;67568;47.438;21.408;2023-12-20T03:57:26;5.30;;;2.77;;
78312;SDS011;67568;47.438;21.408;2023-12-20T03:59:53;3.97;;;2.40;;
78312;SDS011;67568;47.438;21.408;2023-12-20T04:02:20;5.72;;;2.38;;
78312;SDS011;67568;47.438;21.408;2023-12-20T04:04:46;4.47;;;2.83;;
78312;SDS011;67568;47.438;21.408;2023-12-20T04:07:13;3.22;;;2.35;;
78312;SDS011;67568;47.438;21.408;2023-12-20T04:09:40;2.80;;;2.27;;
78312;SDS011;67568;47.438;21.408;2023-12-20T04:12:07;4.25;;;2.65;;
78312;SDS011;67568;47.438;21.408;2023-12-20T04:14:34;4.65;;;1.98;;
78312;SDS011;67568;47.438;21.408;2023-12-20T04:17:01;2.67;;;1.63;;
78312;SDS011;67568;47.438;21.408;2023-12-20T04:19:28;3.35;;;2.47;;
78312;SDS011;67568;47.438;21.408;2023-12-20T04:21:55;2.60;;;2.00;;
78312;SDS011;67568;47.438;21.408;2023-12-20T04:24:21;2.03;;;1.52;;
78312;SDS011;67568;47.438;21.408;2023-12-20T04:26:48;3.70;;;2.13;;
78312;SDS011;67568;47.438;21.408;2023-12-20T04:29:15;5.10;;;3.22;;
78312;SDS011;67568;47.438;21.408;2023-12-20T04:31:41;3.45;;;2.15;;
78312;SDS011;67568;47.438;21.408;2023-12-20T04:34:08;3.70;;;3.30;;
78312;SDS011;67568;47.438;21.408;2023-12-20T04:36:35;6.43;;;3.92;;
78312;SDS011;67568;47.438;21.408;2023-12-20T04:39:02;4.95;;;2.53;;
78312;SDS011;67568;47.438;21.408;2023-12-20T04:41:32;9.10;;;4.25;;
78312;SDS011;67568;47.438;21.408;2023-12-20T04:43:58;3.83;;;2.95;;
78312;SDS011;67568;47.438;21.408;2023-12-20T04:46:25;4.47;;;2.57;;
78312;SDS011;67568;47.438;21.408;2023-12-20T04:48:54;4.82;;;2.50;;
78312;SDS011;67568;47.438;21.408;2023-12-20T04:51:21;3.53;;;2.20;;
78312;SDS011;67568;47.438;21.408;2023-12-20T04:53:48;3.45;;;2.92;;
78312;SDS011;67568;47.438;21.408;2023-12-20T04:56:15;4.60;;;1.95;;
78312;SDS011;67568;47.438;21.408;2023-12-20T04:58:42;2.87;;;2.17;;
78312;SDS011;67568;47.438;21.408;2023-12-20T05:01:09;3.08;;;1.90;;
78312;SDS011;67568;47.438;21.408;2023-12-20T05:03:36;6.32;;;3.97;;
78312;SDS011;67568;47.438;21.408;2023-12-20T05:06:03;2.63;;;1.33;;
78312;SDS011;67568;47.438;21.408;2023-12-20T05:08:30;4.43;;;2.58;;
78312;SDS011;67568;47.438;21.408;2023-12-20T05:10:56;5.33;;;2.90;;
78312;SDS011;67568;47.438;21.408;2023-12-20T05:13:23;7.40;;;3.78;;
78312;SDS011;67568;47.438;21.408;2023-12-20T05:16:03;4.90;;;3.00;;
78312;SDS011;67568;47.438;21.408;2023-12-20T05:18:30;4.05;;;3.15;;
78312;SDS011;67568;47.438;21.408;2023-12-20T05:20:57;5.95;;;3.00;;
78312;SDS011;67568;47.438;21.408;2023-12-20T05:23:25;7.47;;;2.90;;
78312;SDS011;67568;47.438;21.408;2023-12-20T05:25:51;3.97;;;2.28;;
78312;SDS011;67568;47.438;21.408;2023-12-20T05:28:18;5.15;;;2.05;;
78312;SDS011;67568;47.438;21.408;2023-12-20T05:30:45;3.78;;;3.05;;
78312;SDS011;67568;47.438;21.408;2023-12-20T05:33:12;8.38;;;3.92;;
78312;SDS011;67568;47.438;21.408;2023-12-20T05:35:39;3.77;;;2.53;;
78312;SDS011;67568;47.438;21.408;2023-12-20T05:38:05;5.15;;;2.40;;
78312;SDS011;67568;47.438;21.408;2023-12-20T05:40:32;4.90;;;3.72;;
78312;SDS011;67568;47.438;21.408;2023-12-20T05:42:59;7.70;;;1.48;;
78312;SDS011;67568;47.438;21.408;2023-12-20T05:45:26;4.13;;;2.80;;
78312;SDS011;67568;47.438;21.408;2023-12-20T05:47:52;6.20;;;2.87;;
78312;SDS011;67568;47.438;21.408;2023-12-20T05:50:19;4.32;;;2.45;;
78312;SDS011;67568;47.438;21.408;2023-12-20T05:52:47;4.22;;;2.80;;
78312;SDS011;67568;47.438;21.408;2023-12-20T05:55:14;4.68;;;3.40;;
78312;SDS011;67568;47.438;21.408;2023-12-20T05:57:40;3.40;;;2.40;;
78312;SDS011;67568;47.438;21.408;2023-12-20T06:00:07;4.27;;;3.10;;
78312;SDS011;67568;47.438;21.408;2023-12-20T06:02:35;4.68;;;3.22;;
78312;SDS011;67568;47.438;21.408;2023-12-20T06:05:02;3.15;;;1.30;;
78312;SDS011;67568;47.438;21.408;2023-12-20T06:07:30;4.00;;;2.75;;
78312;SDS011;67568;47.438;21.408;2023-12-20T06:09:57;8.77;;;1.98;;
78312;SDS011;67568;47.438;21.408;2023-12-20T06:12:25;3.37;;;1.90;;
78312;SDS011;67568;47.438;21.408;2023-12-20T06:14:52;4.25;;;2.65;;
78312;SDS011;67568;47.438;21.408;2023-12-20T06:17:18;5.45;;;3.00;;
78312;SDS011;67568;47.438;21.408;2023-12-20T06:19:45;7.30;;;3.20;;
78312;SDS011;67568;47.438;21.408;2023-12-20T06:22:12;2.80;;;1.50;;
78312;SDS011;67568;47.438;21.408;2023-12-20T06:24:39;6.87;;;2.33;;
78312;SDS011;67568;47.438;21.408;2023-12-20T06:27:06;2.90;;;1.90;;
78312;SDS011;67568;47.438;21.408;2023-12-20T06:29:33;5.65;;;3.50;;
78312;SDS011;67568;47.438;21.408;2023-12-20T06:31:59;2.00;;;1.45;;
78312;SDS011;67568;47.438;21.408;2023-12-20T06:34:29;3.05;;;1.98;;
78312;SDS011;67568;47.438;21.408;2023-12-20T06:36:56;1.90;;;1.53;;
78312;SDS011;67568;47.438;21.408;2023-12-20T06:39:26;1.92;;;1.30;;
78312;SDS011;67568;47.438;21.408;2023-12-20T06:41:54;4.82;;;2.65;;
78312;SDS011;67568;47.438;21.408;2023-12-20T06:44:21;4.63;;;3.63;;
78312;SDS011;67568;47.438;21.408;2023-12-20T06:46:48;2.60;;;1.23;;
78312;SDS011;67568;47.438;21.408;2023-12-20T06:49:15;4.77;;;3.00;;
78312;SDS011;67568;47.438;21.408;2023-12-20T06:51:44;3.42;;;2.38;;
78312;SDS011;67568;47.438;21.408;2023-12-20T06:54:11;2.30;;;1.70;;
78312;SDS011;67568;47.438;21.408;2023-12-20T06:56:42;4.38;;;1.85;;
78312;SDS011;67568;47.438;21.408;2023-12-20T06:59:09;4.35;;;2.45;;
78312;SDS011;67568;47.438;21.408;2023-12-20T07:01:36;2.97;;;1.83;;
78312;SDS011;67568;47.438;21.408;2023-12-20T07:04:06;4.05;;;2.85;;
78312;SDS011;67568;47.438;21.408;2023-12-20T07:06:33;1.90;;;1.27;;
78312;SDS011;67568;47.438;21.408;2023-12-20T07:09:02;5.30;;;3.03;;
78312;SDS011;67568;47.438;21.408;2023-12-20T07:11:29;4.13;;;2.33;;
78312;SDS011;67568;47.438;21.408;2023-12-20T07:13:55;6.10;;;2.93;;
78312;SDS011;67568;47.438;21.408;2023-12-20T07:16:22;6.78;;;2.50;;
78312;SDS011;67568;47.438;21.408;2023-12-20T07:18:49;1.90;;;1.38;;
78312;SDS011;67568;47.438;21.408;2023-12-20T07:21:17;2.70;;;1.58;;
78312;SDS011;67568;47.438;21.408;2023-12-20T07:23:43;4.70;;;3.08;;
78312;SDS011;67568;47.438;21.408;2023-12-20T07:26:11;3.87;;;2.33;;
78312;SDS011;67568;47.438;21.408;2023-12-20T07:28:38;3.50;;;1.95;;
78312;SDS011;67568;47.438;21.408;2023-12-20T07:31:04;3.13;;;1.40;;
78312;SDS011;67568;47.438;21.408;2023-12-20T07:33:31;2.25;;;1.15;;
78312;SDS011;67568;47.438;21.408;2023-12-20T07:36:05;2.58;;;1.95;;
78312;SDS011;67568;47.438;21.408;2023-12-20T07:38:32;3.10;;;2.53;;
78312;SDS011;67568;47.438;21.408;2023-12-20T07:40:59;1.40;;;1.00;;
78312;SDS011;67568;47.438;21.408;2023-12-20T07:43:26;2.85;;;2.30;;
78312;SDS011;67568;47.438;21.408;2023-12-20T07:45:54;4.57;;;3.05;;
78312;SDS011;67568;47.438;21.408;2023-12-20T07:48:21;7.22;;;2.00;;
78312;SDS011;67568;47.438;21.408;2023-12-20T07:50:48;3.53;;;2.30;;
78312;SDS011;67568;47.438;21.408;2023-12-20T07:53:15;3.75;;;2.95;;
78312;SDS011;67568;47.438;21.408;2023-12-20T07:55:41;2.65;;;1.83;;
78312;SDS011;67568;47.438;21.408;2023-12-20T07:58:08;4.22;;;2.38;;
78312;SDS011;67568;47.438;21.408;2023-12-20T08:00:38;3.22;;;2.25;;
78312;SDS011;67568;47.438;21.408;2023-12-20T08:03:05;3.80;;;2.50;;
78312;SDS011;67568;47.438;21.408;2023-12-20T08:05:32;10.27;;;3.47;;
78312;SDS011;67568;47.438;21.408;2023-12-20T08:07:58;6.65;;;4.38;;
78312;SDS011;67568;47.438;21.408;2023-12-20T08:10:27;4.40;;;2.70;;
78312;SDS011;67568;47.438;21.408;2023-12-20T08:12:54;14.70;;;2.15;;
78312;SDS011;67568;47.438;21.408;2023-12-20T08:15:21;7.40;;;3.17;;
78312;SDS011;67568;47.438;21.408;2023-12-20T08:17:48;5.25;;;3.53;;
78312;SDS011;67568;47.438;21.408;2023-12-20T08:20:16;6.32;;;3.72;;
78312;SDS011;67568;47.438;21.408;2023-12-20T08:22:55;2.22;;;1.73;;
78312;SDS011;67568;47.438;21.408;2023-12-20T08:25:22;6.20;;;4.15;;
78312;SDS011;67568;47.438;21.408;2023-12-20T08:27:49;5.67;;;2.70;;
78312;SDS011;67568;47.438;21.408;2023-12-20T08:30:16;3.40;;;2.65;;
78312;SDS011;67568;47.438;21.408;2023-12-20T08:32:43;8.95;;;6.28;;
78312;SDS011;67568;47.438;21.408;2023-12-20T08:35:10;6.63;;;3.35;;
78312;SDS011;67568;47.438;21.408;2023-12-20T08:37:37;6.05;;;4.57;;
78312;SDS011;67568;47.438;21.408;2023-12-20T08:40:04;5.03;;;3.10;;
78312;SDS011;67568;47.438;21.408;2023-12-20T08:42:32;8.68;;;4.95;;
78312;SDS011;67568;47.438;21.408;2023-12-20T08:44:59;6.65;;;3.55;;
78312;SDS011;67568;47.438;21.408;2023-12-20T08:47:25;8.38;;;5.38;;
78312;SDS011;67568;47.438;21.408;2023-12-20T08:49:53;8.68;;;4.22;;
78312;SDS011;67568;47.438;21.408;2023-12-20T08:52:20;6.17;;;5.13;;
78312;SDS011;67568;47.438;21.408;2023-12-20T08:54:46;12.20;;;6.65;;
78312;SDS011;67568;47.438;21.408;2023-12-20T08:57:14;7.25;;;5.10;;
78312;SDS011;67568;47.438;21.408;2023-12-20T08:59:40;8.90;;;6.10;;
78312;SDS011;67568;47.438;21.408;2023-12-20T09:02:07;8.70;;;6.20;;
78312;SDS011;67568;47.438;21.408;2023-12-20T09:04:35;9.13;;;6.67;;
78312;SDS011;67568;47.438;21.408;2023-12-20T09:07:02;12.02;;;6.93;;
78312;SDS011;67568;47.438;21.408;2023-12-20T09:09:29;10.73;;;6.18;;
78312;SDS011;67568;47.438;21.408;2023-12-20T09:11:56;11.70;;;6.60;;
78312;SDS011;67568;47.438;21.408;2023-12-20T09:14:23;15.13;;;5.20;;
78312;SDS011;67568;47.438;21.408;2023-12-20T09:16:50;15.27;;;7.55;;
78312;SDS011;67568;47.438;21.408;2023-12-20T09:19:17;12.05;;;6.88;;
78312;SDS011;67568;47.438;21.408;2023-12-20T09:21:44;12.48;;;7.38;;
78312;SDS011;67568;47.438;21.408;2023-12-20T09:24:11;27.38;;;6.53;;
78312;SDS011;67568;47.438;21.408;2023-12-20T09:26:38;10.35;;;6.45;;
78312;SDS011;67568;47.438;21.408;2023-12-20T09:29:05;11.10;;;7.47;;
78312;SDS011;67568;47.438;21.408;2023-12-20T09:31:32;13.20;;;7.45;;
78312;SDS011;67568;47.438;21.408;2023-12-20T09:33:59;12.63;;;7.00;;
78312;SDS011;67568;47.438;21.408;2023-12-20T09:36:26;13.35;;;7.93;;
78312;SDS011;67568;47.438;21.408;2023-12-20T09:38:53;10.65;;;6.40;;
78312;SDS011;67568;47.438;21.408;2023-12-20T09:41:19;8.10;;;6.63;;
78312;SDS011;67568;47.438;21.408;2023-12-20T09:43:46;15.15;;;6.40;;
78312;SDS011;67568;47.438;21.408;2023-12-20T09:46:15;14.63;;;5.60;;
78312;SDS011;67568;47.438;21.408;2023-12-20T09:48:46;6.80;;;4.28;;
78312;SDS011;67568;47.438;21.408;2023-12-20T09:51:14;8.80;;;5.20;;
78312;SDS011;67568;47.438;21.408;2023-12-20T09:53:42;11.50;;;4.87;;
78312;SDS011;67568;47.438;21.408;2023-12-20T09:56:10;10.75;;;5.47;;
78312;SDS011;67568;47.438;21.408;2023-12-20T09:58:38;12.98;;;5.90;;
78312;SDS011;67568;47.438;21.408;2023-12-20T10:01:06;7.43;;;4.43;;
78312;SDS011;67568;47.438;21.408;2023-12-20T10:03:34;7.45;;;4.43;;
78312;SDS011;67568;47.438;21.408;2023-12-20T10:06:01;7.70;;;4.60;;
78312;SDS011;67568;47.438;21.408;2023-12-20T10:08:29;12.02;;;6.18;;
78312;SDS011;67568;47.438;21.408;2023-12-20T10:10:55;8.13;;;5.53;;
78312;SDS011;67568;47.438;21.408;2023-12-20T10:13:22;8.77;;;5.25;;
78312;SDS011;67568;47.438;21.408;2023-12-20T10:15:49;12.07;;;5.18;;
78312;SDS011;67568;47.438;21.408;2023-12-20T10:18:16;16.27;;;7.60;;
78312;SDS011;67568;47.438;21.408;2023-12-20T10:20:43;6.50;;;5.13;;
78312;SDS011;67568;47.438;21.408;2023-12-20T10:23:11;15.80;;;5.43;;
78312;SDS011;67568;47.438;21.408;2023-12-20T10:25:38;5.85;;;3.58;;
78312;SDS011;67568;47.438;21.408;2023-12-20T10:28:09;12.02;;;6.20;;
78312;SDS011;67568;47.438;21.408;2023-12-20T10:30:36;8.60;;;5.43;;
78312;SDS011;67568;47.438;21.408;2023-12-20T10:33:07;7.53;;;4.72;;
78312;SDS011;67568;47.438;21.408;2023-12-20T10:35:38;7.25;;;4.03;;
78312;SDS011;67568;47.438;21.408;2023-12-20T10:38:11;10.80;;;4.55;;
78312;SDS011;67568;47.438;21.408;2023-12-20T10:40:39;10.18;;;4.88;;
78312;SDS011;67568;47.438;21.408;2023-12-20T10:43:06;15.03;;;5.57;;
78312;SDS011;67568;47.438;21.408;2023-12-20T10:45:35;7.50;;;5.38;;
78312;SDS011;67568;47.438;21.408;2023-12-20T10:48:03;8.38;;;5.05;;
78312;SDS011;67568;47.438;21.408;2023-12-20T10:50:31;7.72;;;6.72;;
78312;SDS011;67568;47.438;21.408;2023-12-20T10:52:58;8.60;;;4.65;;
78312;SDS011;67568;47.438;21.408;2023-12-20T10:55:26;10.27;;;6.23;;
78312;SDS011;67568;47.438;21.408;2023-12-20T10:58:00;15.30;;;6.32;;
78312;SDS011;67568;47.438;21.408;2023-12-20T11:00:29;14.70;;;5.82;;
78312;SDS011;67568;47.438;21.408;2023-12-20T11:03:00;8.35;;;4.82;;
78312;SDS011;67568;47.438;21.408;2023-12-20T11:08:20;9.83;;;5.10;;
78312;SDS011;67568;47.438;21.408;2023-12-20T11:11:03;18.98;;;7.95;;
78312;SDS011;67568;47.438;21.408;2023-12-20T11:13:48;9.02;;;4.38;;
78312;SDS011;67568;47.438;21.408;2023-12-20T11:16:22;8.30;;;4.18;;
78312;SDS011;67568;47.438;21.408;2023-12-20T11:18:51;7.00;;;3.95;;
78312;SDS011;67568;47.438;21.408;2023-12-20T11:21:18;9.87;;;5.73;;
78312;SDS011;67568;47.438;21.408;2023-12-20T11:23:45;9.77;;;5.30;;
78312;SDS011;67568;47.438;21.408;2023-12-20T11:26:15;12.95;;;6.05;;
78312;SDS011;67568;47.438;21.408;2023-12-20T11:28:42;13.27;;;5.82;;
78312;SDS011;67568;47.438;21.408;2023-12-20T11:31:09;11.55;;;5.82;;
78312;SDS011;67568;47.438;21.408;2023-12-20T11:33:40;8.87;;;5.77;;
78312;SDS011;67568;47.438;21.408;2023-12-20T11:36:19;7.25;;;4.80;;
78312;SDS011;67568;47.438;21.408;2023-12-20T11:38:56;9.30;;;5.75;;
78312;SDS011;67568;47.438;21.408;2023-12-20T11:41:24;8.40;;;5.07;;
78312;SDS011;67568;47.438;21.408;2023-12-20T11:43:55;8.30;;;5.07;;
78312;SDS011;67568;47.438;21.408;2023-12-20T11:46:22;8.38;;;5.40;;
78312;SDS011;67568;47.438;21.408;2023-12-20T11:48:49;11.70;;;6.05;;
78312;SDS011;67568;47.438;21.408;2023-12-20T11:51:17;10.63;;;7.38;;
78312;SDS011;67568;47.438;21.408;2023-12-20T11:53:43;7.30;;;3.63;;
78312;SDS011;67568;47.438;21.408;2023-12-20T11:56:10;9.15;;;3.80;;
78312;SDS011;67568;47.438;21.408;2023-12-20T11:58:38;8.57;;;5.38;;
78312;SDS011;67568;47.438;21.408;2023-12-20T12:01:05;8.10;;;4.63;;
78312;SDS011;67568;47.438;21.408;2023-12-20T12:03:32;8.40;;;4.28;;
78312;SDS011;67568;47.438;21.408;2023-12-20T12:05:59;12.25;;;5.97;;
78312;SDS011;67568;47.438;21.408;2023-12-20T12:08:26;7.68;;;5.78;;
78312;SDS011;67568;47.438;21.408;2023-12-20T12:10:53;8.25;;;3.67;;
78312;SDS011;67568;47.438;21.408;2023-12-20T12:13:21;8.18;;;4.47;;
78312;SDS011;67568;47.438;21.408;2023-12-20T12:15:48;10.68;;;4.22;;
78312;SDS011;67568;47.438;21.408;2023-12-20T12:18:15;6.25;;;3.50;;
78312;SDS011;67568;47.438;21.408;2023-12-20T12:20:43;10.15;;;4.95;;
78312;SDS011;67568;47.438;21.408;2023-12-20T12:23:10;11.43;;;4.20;;
78312;SDS011;67568;47.438;21.408;2023-12-20T12:25:39;4.65;;;3.35;;
78312;SDS011;67568;47.438;21.408;2023-12-20T12:28:09;9.25;;;4.18;;
78312;SDS011;67568;47.438;21.408;2023-12-20T12:30:35;13.20;;;4.55;;
78312;SDS011;67568;47.438;21.408;2023-12-20T12:33:11;11.27;;;4.90;;
78312;SDS011;67568;47.438;21.408;2023-12-20T12:35:39;5.47;;;3.27;;
78312;SDS011;67568;47.438;21.408;2023-12-20T12:38:08;15.25;;;5.30;;
78312;SDS011;67568;47.438;21.408;2023-12-20T12:40:35;6.80;;;3.70;;
78312;SDS011;67568;47.438;21.408;2023-12-20T12:43:02;6.88;;;4.15;;
78312;SDS011;67568;47.438;21.408;2023-12-20T12:45:29;14.32;;;6.32;;
78312;SDS011;67568;47.438;21.408;2023-12-20T12:47:55;9.40;;;5.10;;
78312;SDS011;67568;47.438;21.408;2023-12-20T12:50:23;10.95;;;5.47;;
78312;SDS011;67568;47.438;21.408;2023-12-20T12:52:50;14.35;;;7.22;;
78312;SDS011;67568;47.438;21.408;2023-12-20T12:55:16;10.15;;;4.93;;
78312;SDS011;67568;47.438;21.408;2023-12-20T12:57:44;10.20;;;5.20;;
78312;SDS011;67568;47.438;21.408;2023-12-20T13:00:11;10.30;;;5.20;;
78312;SDS011;67568;47.438;21.408;2023-12-20T13:02:39;7.40;;;5.00;;
78312;SDS011;67568;47.438;21.408;2023-12-20T13:05:06;9.80;;;5.57;;
78312;SDS011;67568;47.438;21.408;2023-12-20T13:07:33;9.60;;;5.13;;
78312;SDS011;67568;47.438;21.408;2023-12-20T13:10:00;8.30;;;4.05;;
78312;SDS011;67568;47.438;21.408;2023-12-20T13:12:27;6.30;;;4.87;;
78312;SDS011;67568;47.438;21.408;2023-12-20T13:14:55;12.82;;;4.70;;
78312;SDS011;67568;47.438;21.408;2023-12-20T13:17:22;6.38;;;3.95;;
78312;SDS011;67568;47.438;21.408;2023-12-20T13:19:49;8.77;;;5.88;;
78312;SDS011;67568;47.438;21.408;2023-12-20T13:22:16;8.82;;;4.63;;
78312;SDS011;67568;47.438;21.408;2023-12-20T13:24:46;4.27;;;3.50;;
78312;SDS011;67568;47.438;21.408;2023-12-20T13:27:16;7.72;;;3.58;;
78312;SDS011;67568;47.438;21.408;2023-12-20T13:29:43;9.35;;;4.45;;
78312;SDS011;67568;47.438;21.408;2023-12-20T13:32:09;7.88;;;4.05;;
78312;SDS011;67568;47.438;21.408;2023-12-20T13:34:36;6.10;;;3.85;;
78312;SDS011;67568;47.438;21.408;2023-12-20T13:37:03;7.53;;;3.70;;
78312;SDS011;67568;47.438;21.408;2023-12-20T13:39:30;3.80;;;3.13;;
78312;SDS011;67568;47.438;21.408;2023-12-20T13:41:57;3.83;;;2.47;;
78312;SDS011;67568;47.438;21.408;2023-12-20T13:44:26;6.47;;;3.15;;
78312;SDS011;67568;47.438;21.408;2023-12-20T13:46:56;10.43;;;4.38;;
78312;SDS011;67568;47.438;21.408;2023-12-20T13:49:25;9.93;;;4.10;;
78312;SDS011;67568;47.438;21.408;2023-12-20T13:51:53;3.78;;;2.42;;
78312;SDS011;67568;47.438;21.408;2023-12-20T13:54:20;8.52;;;3.60;;
78312;SDS011;67568;47.438;21.408;2023-12-20T13:56:47;5.38;;;3.70;;
78312;SDS011;67568;47.438;21.408;2023-12-20T13:59:32;3.42;;;1.80;;
78312;SDS011;67568;47.438;21.408;2023-12-20T14:01:59;7.20;;;3.37;;
78312;SDS011;67568;47.438;21.408;2023-12-20T14:04:26;5.80;;;2.80;;
78312;SDS011;67568;47.438;21.408;2023-12-20T14:07:08;5.30;;;3.42;;
78312;SDS011;67568;47.438;21.408;2023-12-20T14:09:39;3.17;;;2.55;;
78312;SDS011;67568;47.438;21.408;2023-12-20T14:12:07;5.88;;;3.45;;
78312;SDS011;67568;47.438;21.408;2023-12-20T14:14:34;5.00;;;3.03;;
78312;SDS011;67568;47.438;21.408;2023-12-20T14:17:00;5.45;;;3.13;;
78312;SDS011;67568;47.438;21.408;2023-12-20T14:19:27;8.75;;;4.53;;
78312;SDS011;67568;47.438;21.408;2023-12-20T14:21:54;7.72;;;4.47;;
78312;SDS011;67568;47.438;21.408;2023-12-20T14:24:21;7.85;;;6.38;;
78312;SDS011;67568;47.438;21.408;2023-12-20T14:26:48;6.37;;;2.70;;
78312;SDS011;67568;47.438;21.408;2023-12-20T14:29:18;3.72;;;2.47;;
78312;SDS011;67568;47.438;21.408;2023-12-20T14:31:54;4.88;;;2.92;;
78312;SDS011;67568;47.438;21.408;2023-12-20T14:34:23;9.52;;;3.63;;
78312;SDS011;67568;47.438;21.408;2023-12-20T14:36:54;3.72;;;2.45;;
78312;SDS011;67568;47.438;21.408;2023-12-20T14:39:21;7.37;;;4.50;;